createdAt,value
2023-09-12T00:00:53.284Z,11.60
2023-09-12T00:03:22.102Z,10.60
2023-09-12T00:05:58.258Z,12.30
2023-09-12T00:08:26.531Z,11.40
2023-09-12T00:11:04.125Z,11.20
2023-09-12T00:13:32.676Z,11.30
2023-09-12T00:16:00.540Z,11.60
2023-09-12T00:18:28.346Z,11.50
2023-09-12T00:20:56.531Z,11.20
2023-09-12T00:23:24.988Z,11.20
2023-09-12T00:25:55.362Z,11.60
2023-09-12T00:28:23.086Z,11.20
2023-09-12T00:30:51.092Z,10.90
2023-09-12T00:33:18.803Z,11.30
2023-09-12T00:35:48.171Z,10.40
2023-09-12T00:38:17.784Z,10.90
2023-09-12T00:40:45.441Z,12.10
2023-09-12T00:43:13.102Z,11.80
2023-09-12T00:45:41.360Z,10.60
2023-09-12T00:48:10.375Z,10.60
2023-09-12T00:50:38.098Z,11.50
2023-09-12T00:53:05.695Z,11.30
2023-09-12T00:55:35.502Z,10.80
2023-09-12T00:58:03.772Z,10.90
2023-09-12T01:00:31.658Z,10.60
2023-09-12T01:02:59.426Z,10.20
2023-09-12T01:05:28.104Z,11.10
2023-09-12T01:07:58.390Z,11.00
2023-09-12T01:10:25.871Z,10.80
2023-09-12T01:12:53.743Z,10.80
2023-09-12T01:15:21.760Z,11.10
2023-09-12T01:17:49.555Z,11.80
2023-09-12T01:20:26.063Z,11.40
2023-09-12T01:23:05.799Z,11.40
2023-09-12T01:25:43.269Z,10.80
2023-09-12T01:28:11.130Z,10.60
2023-09-12T01:30:39.960Z,10.40
2023-09-12T01:33:07.825Z,10.80
2023-09-12T01:35:36.025Z,11.00
2023-09-12T01:38:05.648Z,10.70
2023-09-12T01:40:51.337Z,11.20
2023-09-12T01:43:22.270Z,11.10
2023-09-12T01:45:55.209Z,11.40
2023-09-12T01:48:25.405Z,11.30
2023-09-12T01:50:53.235Z,10.50
2023-09-12T01:53:20.897Z,11.00
2023-09-12T01:55:48.605Z,10.90
2023-09-12T01:58:16.266Z,10.70
2023-09-12T02:00:43.942Z,11.30
2023-09-12T02:03:11.720Z,10.70
2023-09-12T02:05:39.479Z,11.00
2023-09-12T02:08:07.097Z,11.40
2023-09-12T02:10:36.303Z,10.90
2023-09-12T02:13:03.980Z,10.90
2023-09-12T02:15:32.465Z,10.90
2023-09-12T02:18:00.310Z,10.20
2023-09-12T02:20:28.037Z,11.10
2023-09-12T02:22:56.850Z,10.70
2023-09-12T02:25:24.343Z,10.80
2023-09-12T02:27:52.028Z,9.90
2023-09-12T02:30:19.657Z,10.70
2023-09-12T02:32:47.231Z,10.20
2023-09-12T02:35:14.976Z,10.50
2023-09-12T02:37:42.723Z,9.90
2023-09-12T02:40:13.155Z,10.20
2023-09-12T02:42:41.689Z,10.10
2023-09-12T02:45:10.383Z,10.20
2023-09-12T02:47:38.091Z,10.00
2023-09-12T02:50:06.132Z,10.10
2023-09-12T02:52:33.761Z,10.60
2023-09-12T02:55:01.383Z,10.50
2023-09-12T02:57:28.984Z,9.80
2023-09-12T02:59:56.541Z,9.50
2023-09-12T03:02:24.208Z,10.00
2023-09-12T03:04:52.084Z,9.90
2023-09-12T03:07:19.696Z,9.80
2023-09-12T03:09:51.092Z,9.50
2023-09-12T03:12:18.648Z,9.40
2023-09-12T03:14:46.276Z,8.90
2023-09-12T03:17:13.873Z,9.50
2023-09-12T03:19:41.613Z,8.70
2023-09-12T03:22:09.245Z,9.60
2023-09-12T03:24:36.880Z,8.70
2023-09-12T03:27:05.333Z,9.20
2023-09-12T03:29:34.542Z,9.10
2023-09-12T03:32:02.259Z,9.00
2023-09-12T03:34:30.563Z,9.30
2023-09-12T03:36:58.187Z,8.50
2023-09-12T03:39:25.708Z,9.30
2023-09-12T03:41:53.303Z,9.00
2023-09-12T03:44:21.070Z,9.50
2023-09-12T03:46:48.749Z,8.80
2023-09-12T03:49:18.496Z,9.50
2023-09-12T03:51:46.321Z,8.80
2023-09-12T03:54:14.934Z,9.30
2023-09-12T03:56:44.490Z,9.00
2023-09-12T03:59:15.008Z,9.40
2023-09-12T04:01:42.718Z,8.90
2023-09-12T04:04:10.948Z,8.40
2023-09-12T04:06:39.855Z,8.10
2023-09-12T04:09:08.031Z,9.10
2023-09-12T04:11:46.366Z,8.40
2023-09-12T04:14:15.713Z,8.70
2023-09-12T04:16:43.549Z,7.90
2023-09-12T04:19:11.298Z,7.90
2023-09-12T04:21:39.421Z,8.00
2023-09-12T04:24:08.072Z,9.20
2023-09-12T04:26:35.713Z,9.60
2023-09-12T04:29:03.744Z,9.30
2023-09-12T04:31:31.827Z,10.00
2023-09-12T04:33:59.720Z,10.60
2023-09-12T04:36:27.392Z,10.90
2023-09-12T04:38:54.989Z,12.10
2023-09-12T04:41:23.831Z,11.10
2023-09-12T04:43:51.587Z,12.50
2023-09-12T04:46:19.173Z,12.60
2023-09-12T04:48:47.124Z,13.50
2023-09-12T04:51:14.916Z,13.50
2023-09-12T04:53:42.473Z,14.50
2023-09-12T04:56:11.361Z,14.30
2023-09-12T04:58:39.703Z,15.40
2023-09-12T05:01:07.305Z,15.80
2023-09-12T05:03:34.966Z,17.10
2023-09-12T05:06:02.848Z,17.10
2023-09-12T05:08:31.081Z,17.40
2023-09-12T05:10:58.884Z,16.60
2023-09-12T05:13:29.399Z,16.00
2023-09-12T05:15:58.020Z,15.90
2023-09-12T05:18:26.334Z,16.10
2023-09-12T05:20:54.069Z,15.30
2023-09-12T05:23:21.641Z,15.60
2023-09-12T05:25:49.212Z,15.80
2023-09-12T05:28:17.396Z,15.20
2023-09-12T05:30:49.622Z,15.10
2023-09-12T05:33:19.460Z,14.60
2023-09-12T05:35:48.493Z,14.70
2023-09-12T05:38:16.205Z,14.00
2023-09-12T05:40:44.361Z,14.20
2023-09-12T05:43:12.024Z,13.90
2023-09-12T05:45:39.905Z,14.00
2023-09-12T05:48:07.745Z,13.80
2023-09-12T05:50:37.782Z,13.40
2023-09-12T05:53:06.416Z,13.90
2023-09-12T05:55:34.048Z,13.90
2023-09-12T05:58:01.726Z,13.90
2023-09-12T06:00:29.900Z,13.70
2023-09-12T06:02:57.758Z,13.30
2023-09-12T06:05:25.983Z,14.40
2023-09-12T06:07:54.900Z,13.60
2023-09-12T06:10:22.914Z,12.40
2023-09-12T06:12:51.064Z,12.50
2023-09-12T06:15:19.089Z,13.40
2023-09-12T06:17:49.329Z,12.80
2023-09-12T06:20:17.137Z,11.70
2023-09-12T06:22:44.929Z,12.20
2023-09-12T06:27:44.636Z,11.50
2023-09-12T06:30:13.166Z,11.30
2023-09-12T06:32:40.994Z,11.60
2023-09-12T06:35:10.002Z,11.50
2023-09-12T06:37:39.462Z,10.50
2023-09-12T06:40:08.668Z,10.90
2023-09-12T06:42:36.276Z,10.70
2023-09-12T06:45:03.997Z,10.90
2023-09-12T06:47:31.654Z,11.70
2023-09-12T06:49:59.180Z,12.00
2023-09-12T06:52:26.772Z,12.90
2023-09-12T06:54:54.340Z,12.80
2023-09-12T06:57:22.003Z,11.80
2023-09-12T06:59:50.614Z,12.20
2023-09-12T07:02:19.911Z,10.50
2023-09-12T07:04:47.700Z,10.60
2023-09-12T07:07:15.282Z,10.70
2023-09-12T07:09:42.927Z,11.10
2023-09-12T07:12:11.098Z,10.40
2023-09-12T07:14:40.179Z,10.50
2023-09-12T07:17:08.040Z,10.30
2023-09-12T07:19:35.610Z,10.40
2023-09-12T07:22:03.152Z,9.50
2023-09-12T07:24:30.908Z,9.30
2023-09-12T07:27:01.079Z,10.00
2023-09-12T07:29:29.070Z,9.80
2023-09-12T07:31:58.443Z,9.80
2023-09-12T07:34:29.233Z,10.20
2023-09-12T07:36:57.135Z,9.60
2023-09-12T07:39:26.516Z,10.50
2023-09-12T07:41:54.212Z,9.90
2023-09-12T07:44:22.332Z,9.50
2023-09-12T07:46:50.103Z,11.70
2023-09-12T07:49:17.712Z,9.50
2023-09-12T07:51:45.321Z,11.30
2023-09-12T07:54:12.919Z,10.10
2023-09-12T07:56:40.525Z,10.30
2023-09-12T07:59:12.277Z,9.70
2023-09-12T08:01:40.135Z,9.90
2023-09-12T08:04:07.821Z,9.70
2023-09-12T08:06:47.809Z,8.50
2023-09-12T08:09:23.465Z,8.90
2023-09-12T08:11:51.179Z,8.60
2023-09-12T08:14:21.637Z,8.00
2023-09-12T08:16:49.194Z,8.70
2023-09-12T08:19:19.433Z,7.50
2023-09-12T08:21:47.529Z,7.60
2023-09-12T08:24:15.055Z,7.80
2023-09-12T08:26:43.943Z,8.40
2023-09-12T08:29:12.078Z,7.90
2023-09-12T08:31:39.718Z,8.30
2023-09-12T08:34:09.234Z,7.40
2023-09-12T08:36:37.486Z,6.60
2023-09-12T08:39:09.465Z,6.30
2023-09-12T08:41:37.235Z,6.10
2023-09-12T08:44:07.142Z,7.00
2023-09-12T08:46:34.761Z,6.70
2023-09-12T08:49:02.351Z,6.30
2023-09-12T08:51:29.995Z,6.50
2023-09-12T08:53:57.560Z,5.70
2023-09-12T08:56:26.103Z,5.50
2023-09-12T08:58:53.674Z,5.30
2023-09-12T09:01:22.748Z,5.00
2023-09-12T09:03:50.348Z,4.90
2023-09-12T09:06:21.736Z,5.30
2023-09-12T09:08:52.223Z,4.90
2023-09-12T09:11:19.784Z,4.30
2023-09-12T09:13:48.480Z,3.90
2023-09-12T09:16:22.930Z,4.20
2023-09-12T09:18:54.485Z,4.20
2023-09-12T09:21:27.282Z,4.40
2023-09-12T09:23:55.754Z,4.20
2023-09-12T09:26:23.605Z,4.20
2023-09-12T09:29:10.874Z,4.00
2023-09-12T09:31:43.190Z,3.80
2023-09-12T09:34:18.319Z,4.00
2023-09-12T09:36:53.080Z,4.10
2023-09-12T09:39:22.454Z,4.00
2023-09-12T09:41:51.301Z,4.00
2023-09-12T09:44:18.926Z,4.20
2023-09-12T09:46:47.336Z,4.00
2023-09-12T09:49:22.157Z,3.90
2023-09-12T09:51:49.781Z,4.10
2023-09-12T09:54:17.405Z,4.10
2023-09-12T09:56:54.555Z,4.00
2023-09-12T09:59:23.549Z,3.40
2023-09-12T10:01:52.710Z,3.30
2023-09-12T10:04:20.653Z,3.60
2023-09-12T10:06:48.359Z,2.90
2023-09-12T10:09:16.329Z,2.60
2023-09-12T10:11:45.223Z,3.00
2023-09-12T10:14:13.109Z,3.00
2023-09-12T10:16:46.201Z,3.40
2023-09-12T10:19:28.469Z,2.70
2023-09-12T10:33:36.063Z,2.50
2023-09-12T10:36:13.012Z,2.40
2023-09-12T10:38:45.587Z,2.40
2023-09-12T10:41:14.950Z,2.30
2023-09-12T10:43:44.218Z,2.20
2023-09-12T10:46:12.076Z,3.10
2023-09-12T10:48:41.953Z,2.40
2023-09-12T10:51:09.811Z,2.30
2023-09-12T10:53:37.997Z,2.30
2023-09-12T10:56:08.761Z,2.50
2023-09-12T10:59:09.298Z,2.40
2023-09-12T11:01:38.008Z,2.60
2023-09-12T11:17:41.513Z,3.30
2023-09-12T11:20:12.581Z,3.00
2023-09-12T11:22:44.607Z,2.70
2023-09-12T11:25:26.924Z,2.90
2023-09-12T11:27:57.592Z,2.90
2023-09-12T11:30:32.264Z,3.00
2023-09-12T11:33:01.251Z,2.90
2023-09-12T11:35:30.216Z,3.40
2023-09-12T11:37:59.503Z,3.00
2023-09-12T11:40:34.494Z,2.90
2023-09-12T11:43:05.222Z,2.90
2023-09-12T11:45:33.105Z,3.70
2023-09-12T11:48:00.833Z,3.10
2023-09-12T11:50:32.396Z,2.80
2023-09-12T11:53:07.695Z,3.00
2023-09-12T11:55:37.627Z,2.90
2023-09-12T11:58:05.870Z,3.30
2023-09-12T12:00:33.986Z,2.80
2023-09-12T12:03:01.735Z,3.10
2023-09-12T12:05:30.067Z,3.10
2023-09-12T12:08:16.314Z,2.80
2023-09-12T12:10:45.536Z,2.70
2023-09-12T12:13:16.866Z,2.30
2023-09-12T12:18:12.952Z,2.70
2023-09-12T12:20:41.329Z,2.60
2023-09-12T12:23:09.057Z,3.00
2023-09-12T12:25:36.933Z,2.60
2023-09-12T12:28:05.323Z,2.70
2023-09-12T12:30:39.035Z,2.70
2023-09-12T12:34:07.515Z,2.30
2023-09-12T12:36:05.488Z,2.40
2023-09-12T12:38:48.954Z,2.70
2023-09-12T12:41:37.778Z,2.30
2023-09-12T12:44:13.187Z,3.00
2023-09-12T12:46:56.232Z,2.50
2023-09-12T12:49:24.690Z,2.20
2023-09-12T12:51:52.336Z,2.40
2023-09-12T12:54:23.361Z,2.50
2023-09-12T12:56:51.373Z,2.50
2023-09-12T12:59:18.985Z,2.10
2023-09-12T13:01:46.899Z,2.50
2023-09-12T13:04:14.569Z,1.90
2023-09-12T13:06:43.858Z,2.30
2023-09-12T13:09:12.803Z,2.30
2023-09-12T13:11:40.665Z,2.30
2023-09-12T13:14:11.362Z,2.20
2023-09-12T13:16:42.055Z,2.20
2023-09-12T13:19:12.526Z,2.10
2023-09-12T13:21:40.403Z,2.80
2023-09-12T13:24:08.354Z,2.00
2023-09-12T13:26:35.919Z,2.60
2023-09-12T13:29:03.930Z,2.30
2023-09-12T13:31:33.094Z,2.50
2023-09-12T13:34:01.289Z,2.60
2023-09-12T13:36:31.073Z,2.30
2023-09-12T13:38:58.703Z,2.60
2023-09-12T13:41:27.735Z,2.40
2023-09-12T13:43:55.533Z,2.70
2023-09-12T13:46:23.253Z,2.70
2023-09-12T13:48:51.120Z,3.00
2023-09-12T13:51:18.687Z,2.70
2023-09-12T13:53:46.685Z,2.40
2023-09-12T13:56:14.547Z,2.60
2023-09-12T13:58:44.456Z,2.80
2023-09-12T14:01:26.518Z,2.80
2023-09-12T14:03:59.213Z,2.50
2023-09-12T14:06:28.941Z,2.50
2023-09-12T14:08:57.512Z,2.90
2023-09-12T14:11:32.870Z,2.50
2023-09-12T14:16:36.927Z,2.90
2023-09-12T14:19:05.037Z,2.80
2023-09-12T14:21:33.136Z,2.70
2023-09-12T14:24:01.929Z,3.00
2023-09-12T14:26:30.305Z,2.80
2023-09-12T14:28:58.256Z,3.40
2023-09-12T14:31:26.639Z,2.70
2023-09-12T14:33:54.478Z,2.50
2023-09-12T14:36:22.167Z,3.00
2023-09-12T14:38:50.185Z,2.70
2023-09-12T14:41:17.836Z,3.20
2023-09-12T14:43:45.729Z,2.70
2023-09-12T14:46:13.824Z,3.00
2023-09-12T14:48:51.753Z,2.90
2023-09-12T14:51:31.825Z,2.80
2023-09-12T14:54:02.411Z,2.60
2023-09-12T14:56:30.974Z,3.00
2023-09-12T14:58:58.678Z,3.10
2023-09-12T15:01:26.477Z,3.30
2023-09-12T15:03:54.826Z,3.00
2023-09-12T15:06:24.490Z,2.90
2023-09-12T15:08:52.189Z,3.30
2023-09-12T15:11:19.925Z,2.80
2023-09-12T15:13:48.608Z,2.90
2023-09-12T15:16:17.031Z,2.80
2023-09-12T15:18:44.864Z,2.80
2023-09-12T15:21:12.428Z,3.30
2023-09-12T15:23:39.971Z,3.30
2023-09-12T15:26:07.607Z,2.80
2023-09-12T15:28:35.433Z,2.70
2023-09-12T15:31:04.843Z,2.80
2023-09-12T15:33:34.274Z,3.30
2023-09-12T15:36:02.145Z,3.00
2023-09-12T15:38:31.200Z,2.90
2023-09-12T15:40:59.871Z,3.20
2023-09-12T15:43:28.253Z,3.10
2023-09-12T15:45:56.002Z,2.90
2023-09-12T15:48:24.274Z,3.20
2023-09-12T15:50:52.419Z,2.90
2023-09-12T15:53:20.043Z,3.10
2023-09-12T15:55:49.953Z,2.90
2023-09-12T15:58:17.564Z,3.00
2023-09-12T16:00:45.252Z,3.30
2023-09-12T16:03:13.245Z,3.50
2023-09-12T16:05:40.982Z,3.50
2023-09-12T16:08:09.152Z,3.20
2023-09-12T16:10:37.079Z,3.70
2023-09-12T16:13:05.237Z,4.40
2023-09-12T16:15:34.670Z,4.50
2023-09-12T16:18:02.652Z,4.70
2023-09-12T16:20:30.891Z,4.60
2023-09-12T16:22:58.533Z,3.70
2023-09-12T16:25:26.164Z,4.80
2023-09-12T16:27:54.024Z,4.10
2023-09-12T16:30:21.697Z,4.00
2023-09-12T16:32:49.342Z,4.10
2023-09-12T16:35:17.168Z,4.00
2023-09-12T16:37:45.250Z,3.70
2023-09-12T16:40:12.871Z,3.70
2023-09-12T16:42:40.469Z,4.00
2023-09-12T16:45:09.700Z,4.40
2023-09-12T16:47:37.362Z,4.00
2023-09-12T16:50:05.416Z,4.60
2023-09-12T16:52:33.054Z,4.80
2023-09-12T16:55:00.668Z,4.60
2023-09-12T16:57:28.531Z,4.70
2023-09-12T16:59:56.203Z,4.20
2023-09-12T17:02:25.389Z,4.30
2023-09-12T17:04:53.323Z,4.10
2023-09-12T17:07:21.181Z,3.40
2023-09-12T17:09:51.582Z,4.00
2023-09-12T17:12:19.194Z,3.60
2023-09-12T17:14:46.710Z,4.40
2023-09-12T17:17:14.315Z,3.70
2023-09-12T17:19:41.921Z,4.20
2023-09-12T17:22:09.384Z,4.00
2023-09-12T17:24:37.170Z,4.80
2023-09-12T17:27:04.966Z,4.00
2023-09-12T17:29:32.597Z,4.20
2023-09-12T17:32:09.222Z,4.30
2023-09-12T17:34:43.848Z,4.30
2023-09-12T17:37:11.876Z,5.00
2023-09-12T17:39:40.038Z,4.30
2023-09-12T17:42:07.884Z,4.60
2023-09-12T17:44:35.848Z,4.20
2023-09-12T17:47:03.923Z,4.20
2023-09-12T17:49:34.627Z,4.20
2023-09-12T17:52:02.978Z,4.60
2023-09-12T17:54:30.559Z,5.40
2023-09-12T17:56:59.471Z,5.00
2023-09-12T17:59:28.182Z,4.40
2023-09-12T18:01:55.924Z,5.60
2023-09-12T18:04:25.681Z,5.20
2023-09-12T18:06:54.482Z,5.00
2023-09-12T18:09:22.209Z,5.50
2023-09-12T18:11:49.944Z,5.60
2023-09-12T18:14:17.644Z,5.60
2023-09-12T18:16:45.421Z,5.80
2023-09-12T18:19:13.363Z,6.20
2023-09-12T18:21:41.104Z,7.00
2023-09-12T18:24:08.699Z,6.70
2023-09-12T18:26:36.262Z,7.10
2023-09-12T18:29:04.060Z,6.40
2023-09-12T18:31:31.666Z,7.50
2023-09-12T18:33:59.387Z,6.90
2023-09-12T18:36:29.768Z,6.90
2023-09-12T18:38:57.334Z,7.10
2023-09-12T18:41:24.957Z,7.50
2023-09-12T18:43:53.214Z,7.70
2023-09-12T18:46:21.111Z,7.30
2023-09-12T18:48:48.856Z,7.10
2023-09-12T18:51:16.506Z,6.60
2023-09-12T18:53:44.382Z,6.90
2023-09-12T18:56:12.209Z,7.40
2023-09-12T18:58:40.472Z,6.80
2023-09-12T19:01:09.430Z,7.20
2023-09-12T19:03:37.457Z,7.00
2023-09-12T19:06:05.857Z,6.80
2023-09-12T19:08:33.546Z,8.00
2023-09-12T19:11:01.164Z,7.70
2023-09-12T19:13:28.917Z,8.00
2023-09-12T19:15:56.680Z,7.10
2023-09-12T19:18:24.281Z,7.50
2023-09-12T19:20:51.898Z,7.10
2023-09-12T19:23:20.089Z,7.20
2023-09-12T19:25:49.450Z,7.30
2023-09-12T19:28:18.266Z,8.10
2023-09-12T19:30:46.246Z,8.30
2023-09-12T19:33:15.027Z,7.70
2023-09-12T19:35:43.337Z,7.90
2023-09-12T19:38:11.022Z,7.70
2023-09-12T19:40:39.973Z,7.30
2023-09-12T19:43:07.731Z,7.80
2023-09-12T19:45:36.310Z,8.60
2023-09-12T19:48:06.697Z,8.00
2023-09-12T19:50:35.497Z,9.30
2023-09-12T19:53:03.090Z,9.90
2023-09-12T19:55:30.672Z,10.30
2023-09-12T19:57:58.541Z,9.50
2023-09-12T20:00:26.090Z,10.20
2023-09-12T20:02:53.835Z,10.60
2023-09-12T20:05:24.404Z,10.60
2023-09-12T20:07:52.457Z,10.80
2023-09-12T20:10:22.101Z,10.60
2023-09-12T20:12:52.221Z,11.50
2023-09-12T20:15:21.799Z,10.70
2023-09-12T20:17:52.965Z,11.00
2023-09-12T20:20:23.225Z,10.80
2023-09-12T20:22:51.244Z,11.00
2023-09-12T20:25:20.680Z,10.90
2023-09-12T20:27:49.876Z,10.00
2023-09-12T20:30:17.540Z,10.20
2023-09-12T20:32:57.682Z,11.10
2023-09-12T20:35:30.839Z,10.40
2023-09-12T20:37:59.285Z,10.70
2023-09-12T20:40:27.908Z,10.60
2023-09-12T20:42:56.319Z,11.80
2023-09-12T20:45:23.978Z,11.80
2023-09-12T20:47:52.931Z,11.50
2023-09-12T20:50:27.040Z,10.80
2023-09-12T20:52:59.861Z,11.20
2023-09-12T20:55:28.771Z,10.80
2023-09-12T20:57:58.226Z,11.10
2023-09-12T21:00:28.866Z,10.60
2023-09-12T21:02:56.593Z,11.10
2023-09-12T21:05:24.968Z,11.10
2023-09-12T21:07:52.571Z,11.10
2023-09-12T21:10:20.151Z,11.70
2023-09-12T21:12:47.757Z,11.90
2023-09-12T21:15:15.612Z,11.70
2023-09-12T21:17:43.294Z,12.80
2023-09-12T21:20:11.216Z,11.30
2023-09-12T21:22:38.764Z,11.70
2023-09-12T21:25:06.820Z,11.70
2023-09-12T21:27:34.466Z,11.60
2023-09-12T21:30:04.869Z,11.80
2023-09-12T21:32:33.794Z,11.10
2023-09-12T21:35:12.236Z,11.80
2023-09-12T21:37:42.029Z,11.40
2023-09-12T21:40:11.852Z,10.90
2023-09-12T21:42:40.932Z,11.20
2023-09-12T21:45:13.325Z,11.10
2023-09-12T21:47:41.279Z,11.30
2023-09-12T21:50:09.342Z,11.20
2023-09-12T21:52:38.110Z,10.70
2023-09-12T21:55:06.123Z,10.80
2023-09-12T21:57:35.082Z,11.00
2023-09-12T22:00:14.121Z,11.90
2023-09-12T22:02:41.792Z,12.00
2023-09-12T22:05:09.721Z,10.70
2023-09-12T22:07:37.606Z,11.00
2023-09-12T22:10:05.798Z,11.50
2023-09-12T22:12:33.448Z,10.30
2023-09-12T22:15:01.060Z,11.80
2023-09-12T22:17:28.605Z,11.50
2023-09-12T22:19:57.510Z,11.10
2023-09-12T22:22:25.135Z,10.80
2023-09-12T22:24:54.134Z,11.10
2023-09-12T22:27:22.213Z,11.20
2023-09-12T22:29:49.924Z,11.20
2023-09-12T22:32:17.491Z,11.20
2023-09-12T22:34:46.585Z,12.20
2023-09-12T22:37:14.131Z,11.90
2023-09-12T22:39:46.203Z,11.10
2023-09-12T22:42:13.800Z,11.10
2023-09-12T22:44:41.821Z,10.80
2023-09-12T22:47:09.384Z,10.40
2023-09-12T22:49:36.921Z,11.30
2023-09-12T22:52:04.854Z,11.50
2023-09-12T22:54:32.492Z,10.80
2023-09-12T22:57:00.077Z,11.60
2023-09-12T22:59:30.848Z,12.00
2023-09-12T23:02:00.106Z,11.10
2023-09-12T23:04:28.173Z,12.00
2023-09-12T23:06:57.613Z,12.10
2023-09-12T23:09:25.274Z,11.40
2023-09-12T23:11:53.767Z,11.90
2023-09-12T23:14:21.828Z,11.20
2023-09-12T23:16:49.439Z,12.70
2023-09-12T23:19:17.128Z,12.50
2023-09-12T23:21:44.744Z,12.10
2023-09-12T23:24:12.276Z,12.70
2023-09-12T23:26:39.819Z,12.70
2023-09-12T23:29:07.367Z,12.80
2023-09-12T23:31:34.975Z,12.70
2023-09-12T23:34:03.343Z,13.00
2023-09-12T23:36:30.922Z,12.70
2023-09-12T23:38:58.459Z,13.50
2023-09-12T23:41:26.013Z,13.00
2023-09-12T23:43:56.206Z,12.40
2023-09-12T23:46:23.769Z,12.10
2023-09-12T23:48:51.379Z,13.00
2023-09-12T23:51:18.951Z,12.00
2023-09-12T23:53:46.643Z,11.80
2023-09-12T23:56:14.237Z,12.20
2023-09-12T23:58:41.746Z,12.30
